Aviation Digital Data Service (ADDS)

Output produced by METARs form (2205 UTC 10 February 2016)
found at http://aviationweather.gov/adds/metars/
 
KAEX 101720Z 1018/1118 VRB06KT P6SM SKC